TimeCDT,TemperatureF,Dew PointF,Humidity,Sea Level PressureIn,VisibilityMPH,Wind Direction,Wind SpeedMPH,Gust SpeedMPH,PrecipitationIn,Events,Conditions,WindDirDegrees,DateUTC
12:15 AM,75.2,70.7,86,29.97,7.0,ESE,10.4,-,N/A,,Overcast,110,2014-03-23 05:15:00
12:35 AM,75.2,70.7,86,29.97,7.0,ESE,11.5,-,N/A,,Overcast,110,2014-03-23 05:35:00
12:55 AM,74.8,70.7,87,29.97,5.0,ESE,8.1,-,N/A,,Overcast,110,2014-03-23 05:55:00
1:15 AM,74.8,70.7,87,29.97,5.0,ESE,8.1,-,N/A,,Overcast,110,2014-03-23 06:15:00
1:35 AM,74.7,70.7,87,29.97,5.0,ESE,5.8,-,N/A,,Overcast,110,2014-03-23 06:35:00
1:55 AM,74.5,70.5,87,29.97,5.0,East,6.9,-,N/A,,Overcast,90,2014-03-23 06:55:00
2:15 AM,74.5,70.5,87,29.97,4.0,East,5.8,-,N/A,,Overcast,100,2014-03-23 07:15:00
2:35 AM,74.7,70.5,87,29.97,4.0,ESE,5.8,-,N/A,,Overcast,110,2014-03-23 07:35:00
2:55 AM,74.7,70.3,86,29.97,4.0,ESE,5.8,-,N/A,,Haze,110,2014-03-23 07:55:00
3:15 AM,74.7,70.3,86,29.96,4.0,East,5.8,-,N/A,,Haze,100,2014-03-23 08:15:00
3:35 AM,74.3,70.3,87,29.96,3.0,ESE,3.5,-,N/A,,Drizzle,120,2014-03-23 08:35:00
3:55 AM,74.3,70.7,88,29.96,3.0,Calm,Calm,-,N/A,,Overcast,0,2014-03-23 08:55:00
4:15 AM,74.3,70.7,88,29.95,3.0,Calm,Calm,-,N/A,,Overcast,0,2014-03-23 09:15:00
4:35 AM,74.1,70.5,88,29.94,2.5,East,4.6,-,N/A,,Overcast,100,2014-03-23 09:35:00
4:55 AM,73.8,70.3,89,29.94,2.5,East,4.6,-,N/A,,Overcast,100,2014-03-23 09:55:00
5:15 AM,73.4,70.0,89,29.94,3.0,ENE,4.6,-,N/A,,Overcast,70,2014-03-23 10:15:00
5:35 AM,73.4,70.0,89,29.94,2.5,East,4.6,-,N/A,,Overcast,80,2014-03-23 10:35:00
5:55 AM,73.4,70.2,90,29.94,3.0,East,4.6,-,N/A,,Overcast,80,2014-03-23 10:55:00
6:15 AM,73.4,70.2,90,29.94,4.0,East,5.8,-,N/A,,Overcast,80,2014-03-23 11:15:00
6:35 AM,73.6,70.2,89,29.94,4.0,East,5.8,-,N/A,,Overcast,90,2014-03-23 11:35:00
6:55 AM,73.6,70.0,88,29.95,4.0,East,4.6,-,N/A,,Overcast,100,2014-03-23 11:55:00
7:15 AM,73.6,70.0,88,29.95,5.0,ESE,6.9,-,N/A,,Overcast,110,2014-03-23 12:15:00
7:35 AM,73.4,69.8,88,29.97,5.0,East,8.1,-,N/A,,Overcast,100,2014-03-23 12:35:00
7:55 AM,73.4,69.4,87,29.98,5.0,East,4.6,-,N/A,,Overcast,90,2014-03-23 12:55:00
8:15 AM,73.4,69.4,87,29.99,5.0,East,4.6,-,N/A,,Overcast,100,2014-03-23 13:15:00
8:35 AM,73.8,70.0,88,30.00,5.0,ESE,3.5,-,N/A,,Overcast,120,2014-03-23 13:35:00
8:55 AM,74.5,70.3,87,30.00,5.0,ESE,5.8,-,N/A,,Overcast,120,2014-03-23 13:55:00
9:15 AM,75.6,70.7,85,30.01,7.0,East,5.8,-,N/A,,Overcast,90,2014-03-23 14:15:00
9:35 AM,77.4,70.2,78,30.02,7.0,East,8.1,-,N/A,,Overcast,90,2014-03-23 14:35:00
9:55 AM,76.5,69.4,79,30.03,7.0,East,9.2,-,N/A,,Overcast,100,2014-03-23 14:55:00
10:15 AM,76.1,69.6,80,30.05,7.0,East,8.1,-,N/A,,Overcast,80,2014-03-23 15:15:00
10:35 AM,75.7,69.6,81,30.05,7.0,ENE,6.9,-,N/A,,Overcast,70,2014-03-23 15:35:00
10:55 AM,75.7,69.8,82,30.06,7.0,East,8.1,-,N/A,,Overcast,90,2014-03-23 15:55:00
11:15 AM,75.7,70.0,82,30.06,5.0,East,9.2,-,N/A,,Haze,100,2014-03-23 16:15:00
11:35 AM,76.3,70.9,83,30.07,4.0,East,8.1,-,N/A,,Haze,90,2014-03-23 16:35:00
11:55 AM,77.4,70.0,78,30.07,7.0,East,9.2,-,N/A,,Overcast,80,2014-03-23 16:55:00
12:15 PM,78.6,69.6,74,30.06,7.0,East,9.2,-,N/A,,Overcast,90,2014-03-23 17:15:00
12:35 PM,79.2,68.9,71,30.06,7.0,ENE,9.2,-,N/A,,Overcast,70,2014-03-23 17:35:00
12:55 PM,80.4,68.9,68,30.06,7.0,East,10.4,-,N/A,,Mostly Cloudy,80,2014-03-23 17:55:00
1:15 PM,78.6,69.6,74,30.05,10.0,NNE,11.5,-,N/A,,Mostly Cloudy,30,2014-03-23 18:15:00
1:35 PM,77.0,69.4,77,30.05,10.0,NNE,13.8,18.4,N/A,,Overcast,30,2014-03-23 18:35:00
1:55 PM,76.5,69.1,78,30.04,10.0,NE,13.8,-,N/A,,Overcast,40,2014-03-23 18:55:00
2:15 PM,68.7,63.1,82,30.05,10.0,NNE,17.3,25.3,N/A,,Overcast,20,2014-03-23 19:15:00
2:35 PM,67.3,63.0,86,30.05,10.0,NNE,17.3,20.7,N/A,,Overcast,20,2014-03-23 19:35:00
2:55 PM,66.4,62.2,86,30.05,10.0,NNE,16.1,-,N/A,,Overcast,20,2014-03-23 19:55:00
3:15 PM,65.8,61.3,85,30.05,10.0,NNE,18.4,24.2,N/A,,Overcast,20,2014-03-23 20:15:00
3:35 PM,65.5,60.8,85,30.05,10.0,North,13.8,20.7,N/A,,Overcast,10,2014-03-23 20:35:00
3:55 PM,64.6,59.9,85,30.05,7.0,North,16.1,20.7,N/A,,Overcast,10,2014-03-23 20:55:00
4:15 PM,64.4,59.4,84,30.05,7.0,North,15.0,23.0,N/A,,Overcast,360,2014-03-23 21:15:00
4:35 PM,63.5,58.5,84,30.05,7.0,NNE,13.8,21.9,N/A,,Overcast,20,2014-03-23 21:35:00
4:55 PM,62.8,57.9,84,30.05,7.0,NNE,15.0,-,N/A,,Overcast,20,2014-03-23 21:55:00
5:15 PM,62.6,57.6,84,30.06,7.0,North,15.0,24.2,N/A,,Overcast,10,2014-03-23 22:15:00
5:35 PM,62.6,57.2,82,30.06,10.0,North,13.8,20.7,N/A,,Overcast,10,2014-03-23 22:35:00
5:55 PM,61.7,56.5,83,30.07,10.0,North,19.6,-,N/A,,Overcast,10,2014-03-23 22:55:00
6:15 PM,61.7,56.5,83,30.09,10.0,North,18.4,21.9,N/A,,Overcast,360,2014-03-23 23:15:00
6:35 PM,61.2,56.1,83,30.09,10.0,NNE,15.0,-,N/A,,Overcast,20,2014-03-23 23:35:00
6:55 PM,61.0,55.8,83,30.10,10.0,NNE,13.8,23.0,N/A,,Overcast,20,2014-03-23 23:55:00
7:15 PM,60.8,56.3,85,30.10,7.0,North,15.0,20.7,N/A,,Overcast,10,2014-03-24 00:15:00
7:35 PM,60.4,56.3,86,30.11,5.0,NNE,17.3,24.2,N/A,,Overcast,20,2014-03-24 00:35:00
7:55 PM,60.3,56.5,87,30.12,7.0,North,15.0,19.6,N/A,,Overcast,10,2014-03-24 00:55:00
8:15 PM,60.3,56.8,88,30.12,4.0,NNE,15.0,18.4,N/A,,Overcast,20,2014-03-24 01:15:00
8:35 PM,60.1,57.2,90,30.13,7.0,North,12.7,-,N/A,,Overcast,10,2014-03-24 01:35:00
8:55 PM,59.7,56.5,89,30.15,5.0,North,11.5,-,N/A,,Overcast,360,2014-03-24 01:55:00
9:15 PM,59.2,56.1,90,30.16,10.0,North,10.4,16.1,N/A,,Overcast,360,2014-03-24 02:15:00
9:35 PM,59.4,56.3,90,30.16,7.0,North,9.2,-,N/A,,Overcast,360,2014-03-24 02:35:00
9:55 PM,59.0,55.9,90,30.17,7.0,North,6.9,17.3,N/A,,Overcast,360,2014-03-24 02:55:00
10:15 PM,59.0,55.6,88,30.17,10.0,North,11.5,16.1,N/A,,Overcast,360,2014-03-24 03:15:00
10:35 PM,59.0,55.4,88,30.17,10.0,North,9.2,-,N/A,,Overcast,10,2014-03-24 03:35:00
10:55 PM,59.0,55.4,88,30.17,10.0,North,10.4,-,N/A,,Overcast,10,2014-03-24 03:55:00
11:15 PM,59.0,55.4,88,30.18,10.0,North,9.2,-,N/A,,Overcast,10,2014-03-24 04:15:00
11:35 PM,59.0,55.4,88,30.17,10.0,North,10.4,-,N/A,,Overcast,360,2014-03-24 04:35:00
11:55 PM,58.8,55.2,88,30.17,7.0,North,12.7,17.3,N/A,,Overcast,10,2014-03-24 04:55:00